createdAt,value
2018-02-03T00:00:51.789Z,1005.20
2018-02-03T00:02:05.932Z,1005.17
2018-02-03T00:03:07.802Z,1005.19
2018-02-03T00:04:09.673Z,1005.18
2018-02-03T00:05:11.546Z,1005.15
2018-02-03T00:06:13.334Z,1005.18
2018-02-03T00:07:15.120Z,1005.15
2018-02-03T00:08:16.977Z,1005.13
2018-02-03T00:09:18.845Z,1005.15
2018-02-03T00:10:20.724Z,1005.16
2018-02-03T00:11:34.890Z,1005.15
2018-02-03T00:12:36.763Z,1005.16
2018-02-03T00:13:38.634Z,1005.14
2018-02-03T00:14:40.507Z,1005.12
2018-02-03T00:15:42.319Z,1005.12
2018-02-03T00:16:44.129Z,1005.15
2018-02-03T00:17:45.998Z,1005.05
2018-02-03T00:18:47.849Z,1005.06
2018-02-03T00:19:49.705Z,1005.07
2018-02-03T00:21:03.893Z,1005.04
2018-02-03T00:22:05.748Z,1005.06
2018-02-03T00:23:07.621Z,1005.03
2018-02-03T00:24:09.494Z,1005.02
2018-02-03T00:25:11.284Z,1005.03
2018-02-03T00:26:13.064Z,1005.05
2018-02-03T00:27:14.921Z,1005.06
2018-02-03T00:28:16.769Z,1005.04
2018-02-03T00:29:18.622Z,1005.06
2018-02-03T00:30:32.740Z,1005.08
2018-02-03T00:31:34.596Z,1005.06
2018-02-03T00:32:36.451Z,1005.09
2018-02-03T00:33:38.322Z,1005.10
2018-02-03T00:34:40.105Z,1005.09
2018-02-03T00:35:41.900Z,1005.07
2018-02-03T00:36:43.772Z,1005.05
2018-02-03T00:37:45.641Z,1005.07
2018-02-03T00:38:47.499Z,1005.07
2018-02-03T00:40:01.641Z,1005.05
2018-02-03T00:41:03.507Z,1005.06
2018-02-03T00:42:05.358Z,1005.07
2018-02-03T00:43:07.208Z,1005.10
2018-02-03T00:44:08.996Z,1005.09
2018-02-03T00:45:10.789Z,1005.07
2018-02-03T00:46:12.664Z,1005.06
2018-02-03T00:47:14.514Z,1005.08
2018-02-03T00:48:16.370Z,1005.06
2018-02-03T00:49:30.503Z,1005.03
2018-02-03T00:50:32.363Z,1005.05
2018-02-03T00:51:34.237Z,1005.10
2018-02-03T00:52:36.112Z,1005.08
2018-02-03T00:53:37.919Z,1005.06
2018-02-03T00:54:39.727Z,1005.10
2018-02-03T00:55:41.579Z,1005.07
2018-02-03T00:56:43.429Z,1005.09
2018-02-03T00:57:45.284Z,1005.10
2018-02-03T00:58:59.432Z,1005.10
2018-02-03T01:00:01.290Z,1005.07
2018-02-03T01:01:03.146Z,1005.04
2018-02-03T01:02:04.999Z,1005.03
2018-02-03T01:03:06.809Z,1005.01
2018-02-03T01:04:08.612Z,1005.06
2018-02-03T01:05:10.468Z,1005.00
2018-02-03T01:06:12.322Z,1005.03
2018-02-03T01:07:14.192Z,1004.99
2018-02-03T01:08:28.371Z,1004.98
2018-02-03T01:09:30.234Z,1004.98
2018-02-03T01:10:32.086Z,1004.96
2018-02-03T01:11:33.942Z,1004.98
2018-02-03T01:12:35.751Z,1004.96
2018-02-03T01:13:37.555Z,1005.00
2018-02-03T01:14:39.413Z,1004.98
2018-02-03T01:15:41.280Z,1004.98
2018-02-03T01:16:43.136Z,1004.98
2018-02-03T01:17:57.254Z,1004.96
2018-02-03T01:18:59.126Z,1004.96
2018-02-03T01:20:00.992Z,1005.02
2018-02-03T01:21:02.851Z,1005.01
2018-02-03T01:22:04.664Z,1005.02
2018-02-03T01:23:06.470Z,1005.01
2018-02-03T01:24:08.319Z,1005.07
2018-02-03T01:25:10.171Z,1004.98
2018-02-03T01:26:12.025Z,1004.96
2018-02-03T01:27:26.147Z,1004.95
2018-02-03T01:28:28.016Z,1004.91
2018-02-03T01:29:29.871Z,1004.95
2018-02-03T01:30:31.741Z,1004.90
2018-02-03T01:31:33.529Z,1004.90
2018-02-03T01:32:35.335Z,1004.94
2018-02-03T01:33:37.198Z,1004.94
2018-02-03T01:34:39.047Z,1004.91
2018-02-03T01:35:40.905Z,1004.92
2018-02-03T01:36:55.051Z,1004.93
2018-02-03T01:37:56.920Z,1004.91
2018-02-03T01:38:58.767Z,1004.92
2018-02-03T01:40:00.625Z,1004.94
2018-02-03T01:41:02.427Z,1004.99
2018-02-03T01:42:04.220Z,1004.96
2018-02-03T01:43:06.088Z,1004.94
2018-02-03T01:44:07.945Z,1004.95
2018-02-03T01:45:09.794Z,1004.95
2018-02-03T01:46:23.916Z,1004.92
2018-02-03T01:47:25.767Z,1004.90
2018-02-03T01:48:27.642Z,1004.89
2018-02-03T01:49:29.511Z,1004.90
2018-02-03T01:50:31.321Z,1004.88
2018-02-03T01:51:33.137Z,1004.85
2018-02-03T01:52:34.920Z,1004.83
2018-02-03T01:53:36.731Z,1004.81
2018-02-03T01:54:38.534Z,1004.82
2018-02-03T01:55:52.658Z,1004.82
2018-02-03T01:56:54.528Z,1004.82
2018-02-03T01:57:56.381Z,1004.85
2018-02-03T01:58:58.257Z,1004.85
2018-02-03T02:00:00.073Z,1004.82
2018-02-03T02:01:01.877Z,1004.80
2018-02-03T02:02:03.751Z,1004.82
2018-02-03T02:03:05.625Z,1004.76
2018-02-03T02:04:07.497Z,1004.78
2018-02-03T02:05:21.633Z,1004.78
2018-02-03T02:06:23.489Z,1004.79
2018-02-03T02:07:25.357Z,1004.82
2018-02-03T02:08:27.214Z,1004.79
2018-02-03T02:09:29.023Z,1004.83
2018-02-03T02:10:30.828Z,1004.80
2018-02-03T02:11:32.687Z,1004.73
2018-02-03T02:12:34.558Z,1004.76
2018-02-03T02:13:36.432Z,1004.79
2018-02-03T02:14:50.568Z,1004.79
2018-02-03T02:15:52.423Z,1004.75
2018-02-03T02:16:54.275Z,1004.73
2018-02-03T02:17:56.148Z,1004.74
2018-02-03T02:18:57.959Z,1004.72
2018-02-03T02:19:59.742Z,1004.71
2018-02-03T02:21:01.597Z,1004.70
2018-02-03T02:22:03.451Z,1004.73
2018-02-03T02:23:05.324Z,1004.73
2018-02-03T02:24:19.448Z,1004.75
2018-02-03T02:25:21.323Z,1004.79
2018-02-03T02:26:23.197Z,1004.79
2018-02-03T02:27:25.067Z,1004.81
2018-02-03T02:28:26.857Z,1004.78
2018-02-03T02:29:28.660Z,1004.78
2018-02-03T02:30:30.517Z,1004.81
2018-02-03T02:31:32.367Z,1004.77
2018-02-03T02:32:34.216Z,1004.79
2018-02-03T02:33:48.343Z,1004.77
2018-02-03T02:34:50.214Z,1004.80
2018-02-03T02:35:52.083Z,1004.78
2018-02-03T02:36:53.935Z,1004.78
2018-02-03T02:37:55.724Z,1004.76
2018-02-03T02:38:57.513Z,1004.76
2018-02-03T02:39:59.383Z,1004.71
2018-02-03T02:41:01.254Z,1004.71
2018-02-03T02:42:03.108Z,1004.71
2018-02-03T02:43:17.296Z,1004.69
2018-02-03T02:44:19.151Z,1004.67
2018-02-03T02:45:21.006Z,1004.68
2018-02-03T02:46:22.881Z,1004.67
2018-02-03T02:47:24.691Z,1004.69
2018-02-03T02:48:26.500Z,1004.64
2018-02-03T02:49:28.369Z,1004.61
2018-02-03T02:50:30.242Z,1004.65
2018-02-03T02:51:32.094Z,1004.65
2018-02-03T02:52:46.269Z,1004.62
2018-02-03T02:53:48.121Z,1004.63
2018-02-03T02:54:49.974Z,1004.63
2018-02-03T02:55:51.845Z,1004.61
2018-02-03T02:56:53.636Z,1004.62
2018-02-03T02:57:55.429Z,1004.60
2018-02-03T02:58:57.302Z,1004.59
2018-02-03T02:59:59.159Z,1004.58
2018-02-03T03:01:01.030Z,1004.55
2018-02-03T03:02:15.195Z,1004.56
2018-02-03T03:03:17.052Z,1004.54
2018-02-03T03:04:18.921Z,1004.54
2018-02-03T03:05:20.791Z,1004.56
2018-02-03T03:06:22.588Z,1004.59
2018-02-03T03:07:24.390Z,1004.55
2018-02-03T03:08:26.247Z,1004.55
2018-02-03T03:09:28.105Z,1004.54
2018-02-03T03:10:29.976Z,1004.50
2018-02-03T03:11:44.143Z,1004.57
2018-02-03T03:12:45.992Z,1004.54
2018-02-03T03:13:47.848Z,1004.57
2018-02-03T03:14:49.702Z,1004.56
2018-02-03T03:15:51.492Z,1004.59
2018-02-03T03:16:53.303Z,1004.58
2018-02-03T03:17:55.170Z,1004.62
2018-02-03T03:18:57.023Z,1004.63
2018-02-03T03:19:58.878Z,1004.62
2018-02-03T03:21:13.014Z,1004.61
2018-02-03T03:22:14.870Z,1004.64
2018-02-03T03:23:16.720Z,1004.64
2018-02-03T03:24:18.576Z,1004.64
2018-02-03T03:25:20.369Z,1004.62
2018-02-03T03:26:22.150Z,1004.66
2018-02-03T03:27:24.006Z,1004.67
2018-02-03T03:28:25.878Z,1004.63
2018-02-03T03:29:27.749Z,1004.62
2018-02-03T03:30:41.939Z,1004.61
2018-02-03T03:31:43.731Z,1004.57
2018-02-03T03:32:45.579Z,1004.55
2018-02-03T03:33:47.451Z,1004.60
2018-02-03T03:34:49.250Z,1004.59
2018-02-03T03:35:51.055Z,1004.59
2018-02-03T03:36:52.927Z,1004.56
2018-02-03T03:37:54.801Z,1004.52
2018-02-03T03:38:56.654Z,1004.52
2018-02-03T03:40:10.798Z,1004.52
2018-02-03T03:41:12.666Z,1004.51
2018-02-03T03:42:14.518Z,1004.51
2018-02-03T03:43:16.390Z,1004.47
2018-02-03T03:44:18.202Z,1004.49
2018-02-03T03:45:20.010Z,1004.44
2018-02-03T03:46:21.889Z,1004.52
2018-02-03T03:47:23.737Z,1004.46
2018-02-03T03:48:25.608Z,1004.47
2018-02-03T03:49:39.730Z,1004.50
2018-02-03T03:50:41.599Z,1004.47
2018-02-03T03:51:43.451Z,1004.48
2018-02-03T03:52:45.303Z,1004.49
2018-02-03T03:53:47.090Z,1004.48
2018-02-03T03:54:48.878Z,1004.48
2018-02-03T03:55:50.736Z,1004.51
2018-02-03T03:56:52.590Z,1004.55
2018-02-03T03:57:54.457Z,1004.48
2018-02-03T03:59:08.580Z,1004.56
2018-02-03T04:00:10.453Z,1004.47
2018-02-03T04:01:12.323Z,1004.48
2018-02-03T04:02:14.175Z,1004.44
2018-02-03T04:03:15.968Z,1004.50
2018-02-03T04:04:17.762Z,1004.47
2018-02-03T04:05:19.627Z,1004.46
2018-02-03T04:06:21.497Z,1004.45
2018-02-03T04:07:23.344Z,1004.46
2018-02-03T04:08:37.482Z,1004.45
2018-02-03T04:09:39.336Z,1004.44
2018-02-03T04:10:41.189Z,1004.45
2018-02-03T04:11:43.057Z,1004.41
2018-02-03T04:12:44.851Z,1004.42
2018-02-03T04:13:46.655Z,1004.43
2018-02-03T04:14:48.512Z,1004.42
2018-02-03T04:15:50.360Z,1004.40
2018-02-03T04:16:52.212Z,1004.40
2018-02-03T04:18:06.329Z,1004.44
2018-02-03T04:19:08.185Z,1004.41
2018-02-03T04:20:10.038Z,1004.42
2018-02-03T04:21:11.909Z,1004.35
2018-02-03T04:22:13.694Z,1004.40
2018-02-03T04:23:15.489Z,1004.41
2018-02-03T04:24:17.360Z,1004.36
2018-02-03T04:25:19.218Z,1004.39
2018-02-03T04:26:21.089Z,1004.41
2018-02-03T04:27:35.204Z,1004.43
2018-02-03T04:28:37.061Z,1004.43
2018-02-03T04:29:38.913Z,1004.43
2018-02-03T04:30:40.790Z,1004.43
2018-02-03T04:31:42.601Z,1004.43
2018-02-03T04:32:44.409Z,1004.39
2018-02-03T04:33:46.266Z,1004.43
2018-02-03T04:34:48.135Z,1004.37
2018-02-03T04:35:50.013Z,1004.35
2018-02-03T04:37:04.171Z,1004.33
2018-02-03T04:38:06.024Z,1004.34
2018-02-03T04:39:07.876Z,1004.32
2018-02-03T04:40:09.729Z,1004.29
2018-02-03T04:41:11.539Z,1004.26
2018-02-03T04:42:13.325Z,1004.29
2018-02-03T04:43:15.177Z,1004.25
2018-02-03T04:44:17.054Z,1004.27
2018-02-03T04:45:18.928Z,1004.31
2018-02-03T04:46:33.048Z,1004.36
2018-02-03T04:47:34.900Z,1004.36
2018-02-03T04:48:36.749Z,1004.35
2018-02-03T04:49:38.603Z,1004.42
2018-02-03T04:50:40.394Z,1004.40
2018-02-03T04:51:42.202Z,1004.39
2018-02-03T04:52:44.070Z,1004.39
2018-02-03T04:53:45.923Z,1004.35
2018-02-03T04:54:47.824Z,1004.31
2018-02-03T04:56:01.890Z,1004.31
2018-02-03T04:57:03.747Z,1004.28
2018-02-03T04:58:05.602Z,1004.31
2018-02-03T04:59:07.457Z,1004.31
2018-02-03T05:00:09.238Z,1004.31
2018-02-03T05:01:11.029Z,1004.34
2018-02-03T05:02:12.906Z,1004.32
2018-02-03T05:03:14.779Z,1004.35
2018-02-03T05:04:16.628Z,1004.35
2018-02-03T05:05:30.743Z,1004.30
2018-02-03T05:06:32.612Z,1004.26
2018-02-03T05:07:34.465Z,1004.27
2018-02-03T05:08:36.332Z,1004.31
2018-02-03T05:09:38.119Z,1004.32
2018-02-03T05:10:39.914Z,1004.32
2018-02-03T05:11:41.783Z,1004.33
2018-02-03T05:12:43.642Z,1004.33
2018-02-03T05:13:45.511Z,1004.32
2018-02-03T05:14:59.634Z,1004.36
2018-02-03T05:16:01.501Z,1004.37
2018-02-03T05:17:03.351Z,1004.36
2018-02-03T05:18:05.206Z,1004.40
2018-02-03T05:19:07.011Z,1004.41
2018-02-03T05:20:08.805Z,1004.41
2018-02-03T05:21:10.655Z,1004.46
2018-02-03T05:22:12.524Z,1004.43
2018-02-03T05:23:14.375Z,1004.45
2018-02-03T05:24:28.497Z,1004.45
2018-02-03T05:25:30.367Z,1004.40
2018-02-03T05:26:32.237Z,1004.38
2018-02-03T05:27:34.088Z,1004.40
2018-02-03T05:28:35.878Z,1004.41
2018-02-03T05:29:37.668Z,1004.36
2018-02-03T05:30:39.527Z,1004.38
2018-02-03T05:31:41.403Z,1004.37
2018-02-03T05:32:43.255Z,1004.35
2018-02-03T05:33:57.418Z,1004.40
2018-02-03T05:34:59.288Z,1004.41
2018-02-03T05:36:01.162Z,1004.39
2018-02-03T05:37:03.041Z,1004.40
2018-02-03T05:38:04.850Z,1004.42
2018-02-03T05:39:06.660Z,1004.49
2018-02-03T05:40:08.524Z,1004.45
2018-02-03T05:41:10.379Z,1004.41
2018-02-03T05:42:12.250Z,1004.43
2018-02-03T05:43:26.386Z,1004.46
2018-02-03T05:44:28.241Z,1004.45
2018-02-03T05:45:30.110Z,1004.48
2018-02-03T05:46:31.983Z,1004.50
2018-02-03T05:47:33.794Z,1004.49
2018-02-03T05:48:35.606Z,1004.51
2018-02-03T05:49:37.476Z,1004.50
2018-02-03T05:50:39.333Z,1004.49
2018-02-03T05:51:41.186Z,1004.50
2018-02-03T05:52:55.324Z,1004.54
2018-02-03T05:53:57.198Z,1004.54
2018-02-03T05:54:59.047Z,1004.56
2018-02-03T05:56:00.918Z,1004.57
2018-02-03T05:57:02.708Z,1004.53
2018-02-03T05:58:04.499Z,1004.56
2018-02-03T05:59:06.307Z,1004.54
2018-02-03T06:00:08.089Z,1004.54
2018-02-03T06:01:09.882Z,1004.54
2018-02-03T06:02:23.998Z,1004.55
2018-02-03T06:03:25.851Z,1004.53
2018-02-03T06:04:27.723Z,1004.53
2018-02-03T06:05:29.599Z,1004.53
2018-02-03T06:06:31.407Z,1004.51
2018-02-03T06:07:33.193Z,1004.49
2018-02-03T06:08:35.051Z,1004.58
2018-02-03T06:09:36.926Z,1004.56
2018-02-03T06:10:38.799Z,1004.57
2018-02-03T06:11:52.934Z,1004.61
2018-02-03T06:12:54.787Z,1004.61
2018-02-03T06:13:56.683Z,1004.63
2018-02-03T06:14:58.494Z,1004.62
2018-02-03T06:16:00.306Z,1004.65
2018-02-03T06:17:02.093Z,1004.67
2018-02-03T06:18:03.951Z,1004.64
2018-02-03T06:19:05.805Z,1004.66
2018-02-03T06:20:07.657Z,1004.65
2018-02-03T06:21:21.787Z,1004.66
2018-02-03T06:22:23.639Z,1004.56
2018-02-03T06:23:25.507Z,1004.61
2018-02-03T06:24:27.358Z,1004.54
2018-02-03T06:25:29.149Z,1004.56
2018-02-03T06:26:30.941Z,1004.57
2018-02-03T06:27:32.812Z,1004.56
2018-02-03T06:28:34.626Z,1004.53
2018-02-03T06:29:36.413Z,1004.50
2018-02-03T06:30:50.570Z,1004.51
2018-02-03T06:31:52.429Z,1004.55
2018-02-03T06:34:10.978Z,1004.59
2018-02-03T06:35:12.772Z,1004.59
2018-02-03T06:36:14.579Z,1004.69
2018-02-03T06:37:16.433Z,1004.66
2018-02-03T06:38:18.308Z,1004.67
2018-02-03T06:39:20.186Z,1004.70
2018-02-03T06:40:34.332Z,1004.62
2018-02-03T06:41:36.204Z,1004.64
2018-02-03T06:42:38.079Z,1004.63
2018-02-03T06:43:39.940Z,1004.62
2018-02-03T06:44:41.757Z,1004.59
2018-02-03T06:45:43.560Z,1004.58
2018-02-03T06:46:45.430Z,1004.57
2018-02-03T06:47:47.297Z,1004.58
2018-02-03T06:48:49.154Z,1004.60
2018-02-03T06:50:03.330Z,1004.66
2018-02-03T06:51:05.185Z,1004.66
2018-02-03T06:52:07.033Z,1004.65
2018-02-03T06:53:08.895Z,1004.63
2018-02-03T06:54:10.706Z,1004.67
2018-02-03T06:55:12.496Z,1004.65
2018-02-03T06:56:14.350Z,1004.73
2018-02-03T06:57:16.205Z,1004.77
2018-02-03T06:58:18.063Z,1004.77
2018-02-03T06:59:32.252Z,1004.73
2018-02-03T07:00:34.109Z,1004.76
2018-02-03T07:01:35.965Z,1004.79
2018-02-03T07:02:37.842Z,1004.79
2018-02-03T07:03:39.656Z,1004.84
2018-02-03T07:04:41.446Z,1004.91
2018-02-03T07:05:43.306Z,1004.86
2018-02-03T07:06:45.142Z,1004.88
2018-02-03T07:07:46.952Z,1004.93
2018-02-03T07:09:01.095Z,1004.88
2018-02-03T07:10:02.951Z,1004.91
2018-02-03T07:11:04.808Z,1004.90
2018-02-03T07:12:06.683Z,1004.89
2018-02-03T07:13:08.480Z,1004.85
2018-02-03T07:14:10.295Z,1004.81
2018-02-03T07:15:12.172Z,1004.81
2018-02-03T07:16:14.054Z,1004.81
2018-02-03T07:17:15.934Z,1004.79
2018-02-03T07:18:30.073Z,1004.80
2018-02-03T07:19:31.934Z,1004.75
2018-02-03T07:20:33.807Z,1004.77
2018-02-03T07:21:35.665Z,1004.79
2018-02-03T07:22:37.482Z,1004.75
2018-02-03T07:23:39.274Z,1004.76
2018-02-03T07:24:41.135Z,1004.75
2018-02-03T07:25:42.989Z,1004.74
2018-02-03T07:26:44.883Z,1004.74
2018-02-03T07:27:58.969Z,1004.74
2018-02-03T07:29:00.825Z,1004.77
2018-02-03T07:30:02.697Z,1004.74
2018-02-03T07:31:04.569Z,1004.75
2018-02-03T07:32:06.372Z,1004.76
2018-02-03T07:33:08.183Z,1004.72
2018-02-03T07:34:10.056Z,1004.80
2018-02-03T07:35:11.918Z,1004.78
2018-02-03T07:36:13.796Z,1004.79
2018-02-03T07:37:27.983Z,1004.82
2018-02-03T07:38:29.841Z,1004.88
2018-02-03T07:39:31.743Z,1004.91
2018-02-03T07:40:33.569Z,1004.91
2018-02-03T07:41:35.383Z,1004.92
2018-02-03T07:42:37.174Z,1004.98
2018-02-03T07:43:39.037Z,1004.96
2018-02-03T07:44:40.918Z,1004.92
2018-02-03T07:45:42.774Z,1004.96
2018-02-03T07:46:56.919Z,1004.99
2018-02-03T07:47:58.793Z,1004.98
2018-02-03T07:49:00.650Z,1005.02
2018-02-03T07:50:02.531Z,1005.04
2018-02-03T07:51:04.322Z,1004.99
2018-02-03T07:52:06.122Z,1005.00
2018-02-03T07:53:07.997Z,1005.04
2018-02-03T07:54:09.857Z,1004.99
2018-02-03T07:55:11.735Z,1005.01
2018-02-03T07:56:25.855Z,1004.98
2018-02-03T07:57:27.716Z,1004.96
2018-02-03T07:58:29.593Z,1004.95
2018-02-03T07:59:31.457Z,1005.01
2018-02-03T08:00:33.271Z,1005.00
2018-02-03T08:01:35.070Z,1005.04
2018-02-03T08:02:36.924Z,1005.05
2018-02-03T08:03:38.804Z,1005.01
2018-02-03T08:04:40.667Z,1004.99
2018-02-03T08:05:54.807Z,1004.98
2018-02-03T08:06:56.664Z,1004.96
2018-02-03T08:07:58.521Z,1004.96
2018-02-03T08:09:00.380Z,1005.00
2018-02-03T08:10:02.170Z,1004.99
2018-02-03T08:11:03.973Z,1004.95
2018-02-03T08:12:05.850Z,1004.95
2018-02-03T08:13:07.734Z,1004.98
2018-02-03T08:14:09.610Z,1004.95
2018-02-03T08:15:23.742Z,1004.89
2018-02-03T08:16:25.622Z,1004.89
2018-02-03T08:17:27.477Z,1004.93
2018-02-03T08:18:29.357Z,1004.91
2018-02-03T08:19:31.180Z,1004.89
2018-02-03T08:20:32.992Z,1004.89
2018-02-03T08:21:34.873Z,1004.93
2018-02-03T08:22:36.750Z,1004.88
2018-02-03T08:23:38.606Z,1004.87
2018-02-03T08:24:52.745Z,1004.86
2018-02-03T08:25:54.623Z,1004.87
2018-02-03T08:26:56.477Z,1004.85
2018-02-03T08:27:58.359Z,1004.89
2018-02-03T08:29:00.156Z,1004.86
2018-02-03T08:30:01.965Z,1004.83
2018-02-03T08:31:03.825Z,1004.79
2018-02-03T08:32:05.687Z,1004.77
2018-02-03T08:33:07.544Z,1004.75
2018-02-03T08:34:21.739Z,1004.72
2018-02-03T08:35:23.620Z,1004.77
2018-02-03T08:36:25.497Z,1004.73
2018-02-03T08:37:27.371Z,1004.75
2018-02-03T08:38:29.155Z,1004.70
2018-02-03T08:39:30.973Z,1004.74
2018-02-03T08:40:32.866Z,1004.69
2018-02-03T08:41:34.738Z,1004.70
2018-02-03T08:42:36.606Z,1004.62
2018-02-03T08:43:50.750Z,1004.55
2018-02-03T08:44:52.630Z,1004.52
2018-02-03T08:45:54.507Z,1004.52
2018-02-03T08:46:56.372Z,1004.49
2018-02-03T08:47:58.163Z,1004.47
2018-02-03T08:48:59.955Z,1004.46
2018-02-03T08:50:01.811Z,1004.51
2018-02-03T08:51:03.666Z,1004.40
2018-02-03T08:52:05.528Z,1004.37
2018-02-03T08:53:19.656Z,1004.41
2018-02-03T08:54:21.515Z,1004.32
2018-02-03T08:55:23.396Z,1004.34
2018-02-03T08:56:25.295Z,1004.28
2018-02-03T08:57:27.125Z,1004.30
2018-02-03T08:58:28.914Z,1004.33
2018-02-03T08:59:30.782Z,1004.38
2018-02-03T09:00:32.661Z,1004.39
2018-02-03T09:01:34.541Z,1004.43
2018-02-03T09:02:48.709Z,1004.43
2018-02-03T09:03:50.566Z,1004.41
2018-02-03T09:04:52.438Z,1004.43
2018-02-03T09:05:54.353Z,1004.45
2018-02-03T09:06:56.177Z,1004.46
2018-02-03T09:07:57.973Z,1004.49
2018-02-03T09:08:59.864Z,1004.53
2018-02-03T09:10:01.738Z,1004.52
2018-02-03T09:11:03.615Z,1004.50
2018-02-03T09:12:17.752Z,1004.47
2018-02-03T09:13:19.608Z,1004.48
2018-02-03T09:14:21.488Z,1004.55
2018-02-03T09:15:23.404Z,1004.55
2018-02-03T09:16:25.232Z,1004.58
2018-02-03T09:17:27.026Z,1004.54
2018-02-03T09:18:28.909Z,1004.61
2018-02-03T09:19:30.786Z,1004.64
2018-02-03T09:20:32.650Z,1004.60
2018-02-03T09:21:46.773Z,1004.61
2018-02-03T09:22:48.649Z,1004.60
2018-02-03T09:23:50.545Z,1004.63
2018-02-03T09:24:52.429Z,1004.64
2018-02-03T09:25:54.228Z,1004.67
2018-02-03T09:26:56.021Z,1004.66
2018-02-03T09:27:57.901Z,1004.65
2018-02-03T09:28:59.761Z,1004.79
2018-02-03T09:30:01.625Z,1004.84
2018-02-03T09:31:15.773Z,1004.86
2018-02-03T09:32:17.647Z,1004.88
2018-02-03T09:33:19.508Z,1004.86
2018-02-03T09:34:21.389Z,1004.91
2018-02-03T09:35:23.185Z,1004.97
2018-02-03T09:36:24.982Z,1004.95
2018-02-03T09:37:26.860Z,1004.96
2018-02-03T09:38:28.738Z,1005.02
2018-02-03T09:39:30.597Z,1004.95
2018-02-03T09:40:44.719Z,1004.89
2018-02-03T09:41:46.588Z,1004.87
2018-02-03T09:42:48.467Z,1004.85
2018-02-03T09:43:50.342Z,1004.81
2018-02-03T09:44:52.140Z,1004.82
2018-02-03T09:45:53.926Z,1004.77
2018-02-03T09:46:55.794Z,1004.72
2018-02-03T09:47:57.674Z,1004.73
2018-02-03T09:48:59.557Z,1004.74
2018-02-03T09:50:13.700Z,1004.81
2018-02-03T09:51:15.580Z,1004.76
2018-02-03T09:52:17.434Z,1004.80
2018-02-03T09:53:19.299Z,1004.86
2018-02-03T09:54:21.118Z,1004.93
2018-02-03T09:55:22.916Z,1004.97
2018-02-03T09:56:24.802Z,1005.02
2018-02-03T09:57:26.688Z,1005.04
2018-02-03T09:58:28.557Z,1005.06
2018-02-03T09:59:42.685Z,1005.08
2018-02-03T10:00:44.590Z,1005.15
2018-02-03T10:01:46.484Z,1005.23
2018-02-03T10:02:48.355Z,1005.22
2018-02-03T10:03:50.207Z,1005.24
2018-02-03T10:04:52.014Z,1005.36
2018-02-03T10:05:53.879Z,1005.35
2018-02-03T10:06:55.761Z,1005.31
2018-02-03T10:07:57.637Z,1005.22
2018-02-03T10:09:11.774Z,1005.19
2018-02-03T10:10:13.651Z,1005.21
2018-02-03T10:11:15.513Z,1005.18
2018-02-03T10:12:17.408Z,1005.16
2018-02-03T10:13:19.225Z,1005.24
2018-02-03T10:14:21.025Z,1005.15
2018-02-03T10:15:22.882Z,1005.05
2018-02-03T10:16:24.742Z,1004.90
2018-02-03T10:17:26.600Z,1004.99
2018-02-03T10:18:40.731Z,1004.95
2018-02-03T10:19:42.584Z,1005.00
2018-02-03T10:20:44.448Z,1004.96
2018-02-03T10:21:46.331Z,1004.90
2018-02-03T10:22:48.147Z,1004.85
2018-02-03T10:23:49.957Z,1004.84
2018-02-03T10:24:51.822Z,1004.81
2018-02-03T10:25:53.697Z,1004.80
2018-02-03T10:26:55.578Z,1004.69
2018-02-03T10:28:09.724Z,1004.60
2018-02-03T10:29:11.589Z,1004.54
2018-02-03T10:30:13.467Z,1004.49
2018-02-03T10:31:15.326Z,1004.45
2018-02-03T10:32:17.130Z,1004.48
2018-02-03T10:33:18.945Z,1004.48
2018-02-03T10:34:20.829Z,1004.55
2018-02-03T10:35:22.712Z,1004.52
2018-02-03T10:36:24.565Z,1004.46
2018-02-03T10:37:38.710Z,1004.53
2018-02-03T10:38:41.302Z,1004.54
2018-02-03T10:39:43.136Z,1004.54
2018-02-03T10:40:45.462Z,1004.60
2018-02-03T10:41:47.228Z,1004.63
2018-02-03T10:42:49.023Z,1004.67
2018-02-03T10:43:50.878Z,1004.62
2018-02-03T10:44:52.734Z,1004.57
2018-02-03T10:45:54.600Z,1004.56
2018-02-03T10:47:08.746Z,1004.54
2018-02-03T10:48:10.599Z,1004.53
2018-02-03T10:49:12.464Z,1004.50
2018-02-03T10:50:14.314Z,1004.59
2018-02-03T10:51:16.113Z,1004.59
2018-02-03T10:52:17.928Z,1004.53
2018-02-03T10:53:19.778Z,1004.48
2018-02-03T10:54:21.637Z,1004.49
2018-02-03T10:55:23.499Z,1004.47
2018-02-03T10:56:37.638Z,1004.42
2018-02-03T10:57:39.500Z,1004.46
2018-02-03T10:58:41.378Z,1004.40
2018-02-03T10:59:43.236Z,1004.32
2018-02-03T11:00:45.034Z,1004.29
2018-02-03T11:01:46.848Z,1004.24
2018-02-03T11:02:48.722Z,1004.27
2018-02-03T11:03:50.581Z,1004.25
2018-02-03T11:04:52.456Z,1004.25
2018-02-03T11:06:06.584Z,1004.25
2018-02-03T11:07:08.441Z,1004.29
2018-02-03T11:08:10.314Z,1004.27
2018-02-03T11:09:12.172Z,1004.28
2018-02-03T11:10:13.963Z,1004.28
2018-02-03T11:11:15.761Z,1004.34
2018-02-03T11:12:17.616Z,1004.31
2018-02-03T11:13:19.473Z,1004.33
2018-02-03T11:14:21.335Z,1004.37
2018-02-03T11:15:35.540Z,1004.37
2018-02-03T11:16:37.431Z,1004.36
2018-02-03T11:17:39.307Z,1004.39
2018-02-03T11:18:41.159Z,1004.46
2018-02-03T11:19:42.957Z,1004.51
2018-02-03T11:20:44.776Z,1004.51
2018-02-03T11:21:46.646Z,1004.58
2018-02-03T11:22:48.506Z,1004.59
2018-02-03T11:23:50.363Z,1004.59
2018-02-03T11:25:04.493Z,1004.62
2018-02-03T11:26:06.358Z,1004.62
2018-02-03T11:27:08.231Z,1004.61
2018-02-03T11:28:10.088Z,1004.71
2018-02-03T11:29:11.878Z,1004.59
2018-02-03T11:30:13.674Z,1004.62
2018-02-03T11:31:15.547Z,1004.61
2018-02-03T11:32:17.408Z,1004.58
2018-02-03T11:33:19.260Z,1004.52
2018-02-03T11:34:33.435Z,1004.53
2018-02-03T11:35:35.310Z,1004.54
2018-02-03T11:36:37.194Z,1004.53
2018-02-03T11:37:39.074Z,1004.57
2018-02-03T11:38:40.887Z,1004.51
2018-02-03T11:39:42.687Z,1004.51
2018-02-03T11:40:44.559Z,1004.46
2018-02-03T11:41:46.421Z,1004.45
2018-02-03T11:42:48.296Z,1004.52
2018-02-03T11:44:02.446Z,1004.47
2018-02-03T11:45:04.299Z,1004.51
2018-02-03T11:46:06.174Z,1004.52
2018-02-03T11:47:08.038Z,1004.58
2018-02-03T11:48:09.836Z,1004.60
2018-02-03T11:49:11.632Z,1004.57
2018-02-03T11:50:13.511Z,1004.57
2018-02-03T11:51:15.368Z,1004.62
2018-02-03T11:52:17.241Z,1004.56
2018-02-03T11:53:31.406Z,1004.66
2018-02-03T11:54:33.273Z,1004.63
2018-02-03T11:55:35.142Z,1004.56
2018-02-03T11:56:37.002Z,1004.52
2018-02-03T11:57:38.820Z,1004.51
2018-02-03T11:58:40.640Z,1004.47
2018-02-03T11:59:42.512Z,1004.49
2018-02-03T12:00:44.379Z,1004.55
2018-02-03T12:01:46.251Z,1004.52
2018-02-03T12:03:00.400Z,1004.51
2018-02-03T12:04:02.273Z,1004.50
2018-02-03T12:05:04.140Z,1004.50
2018-02-03T12:06:05.998Z,1004.47
2018-02-03T12:07:07.812Z,1004.54
2018-02-03T12:08:09.606Z,1004.48
2018-02-03T12:09:11.464Z,1004.46
2018-02-03T12:10:13.341Z,1004.43
2018-02-03T12:11:15.247Z,1004.45
2018-02-03T12:12:29.412Z,1004.37
2018-02-03T12:13:31.289Z,1004.35
2018-02-03T12:14:33.163Z,1004.38
2018-02-03T12:15:35.028Z,1004.33
2018-02-03T12:16:36.841Z,1004.29
2018-02-03T12:17:38.636Z,1004.29
2018-02-03T12:18:40.495Z,1004.27
2018-02-03T12:19:42.355Z,1004.20
2018-02-03T12:20:44.238Z,1004.21
2018-02-03T12:21:58.417Z,1004.21
2018-02-03T12:23:00.283Z,1004.21
2018-02-03T12:24:02.140Z,1004.19
2018-02-03T12:25:04.019Z,1004.25
2018-02-03T12:26:05.837Z,1004.21
2018-02-03T12:27:07.654Z,1004.23
2018-02-03T12:28:09.552Z,1004.21
2018-02-03T12:29:11.429Z,1004.22
2018-02-03T12:30:13.306Z,1004.19
2018-02-03T12:31:27.456Z,1004.20
2018-02-03T12:32:29.351Z,1004.27
2018-02-03T12:33:31.188Z,1004.22
2018-02-03T12:34:33.043Z,1004.30
2018-02-03T12:35:34.859Z,1004.20
2018-02-03T12:36:36.670Z,1004.17
2018-02-03T12:37:38.574Z,1004.18
2018-02-03T12:38:40.404Z,1004.16
2018-02-03T12:39:42.316Z,1004.18
2018-02-03T12:40:56.383Z,1004.22
2018-02-03T12:41:58.174Z,1004.19
2018-02-03T12:42:59.971Z,1004.18
2018-02-03T12:44:01.809Z,1004.20
2018-02-03T12:45:03.687Z,1004.17
2018-02-03T12:46:05.560Z,1004.21